Yuma, AZ

01:07 PM MST on Ιανουάριος 20, 2017 (GMT -0700)
Yuma Marine Corps Air Station | | Change Station

Elev 210 ft 32.66 °N, 114.61 °W | Updated 10 minutes ago

Νεφοσκεπής
Νεφοσκεπής
61 ° F
Feels Like 61 ° F
N
21
Ανεμος Μεταβλητός Ανεμος from ΝΝΑ

Σήμερα
High -- | Low -- ° F
--% Chance of Precip.
Yesterday
High -- | Low -- ° F
Precip. -- in
Ατμοσφαιρική Πίεση 29.68 in
Ορατότητα 10.0 Μίλια
Σύννεφα Νεφελώδης 6000 ft
Νεφοσκεπής 9500 ft
Σημείο Δρόσου 48 ° F
Υγρασία 62%
Rainfall 0.00 in
Snow Depth Not available.
7:39 AM 6:00 PM
Τελευταίο τέταρτο, 41% visible
METAR KNYL 201957Z 16018KT 10SM BKN060 OVC095 16/09 A2968 RMK AO2 SLP049 T01610089
Ατμοσφαιρική Πίεση 29.68 in
Ορατότητα 10.0 Μίλια
Σύννεφα Νεφελώδης 6000 ft
Νεφοσκεπής 9500 ft
Σημείο Δρόσου 48 ° F
Υγρασία 62%
Rainfall 0.00 in
Snow Depth Not available.
7:39 AM 6:00 PM
Τελευταίο τέταρτο, 41% visible
METAR KNYL 201957Z 16018KT 10SM BKN060 OVC095 16/09 A2968 RMK AO2 SLP049 T01610089

Get Your Daily Forecast Email!

Thanks for signing up!

Be on the lookout for a verification email in your inbox.

You'll start receiving the daily forecast at 8 AM.

×

10-Day Weather Forecast

Almanac

Αστρονομία

Jan. 20, 2017 Rise Set
Actual Time
Civil Twilight
Nautical Twilight
Astronomical Twilight
Moon
Length Of Visible Light
Διάρκεια ημέρας
Tomorrow will be .
, % of the Moon is Illuminated

Today's Extremes

State Highs State Lows

Community

WunderPhotos

Upload Photos

1,962,540 photos uploaded!

WunderBlog® & News

Nearby

Air Quality

  Air Quality AQ Index Pollutant
Not available.

Snow Depth

Station Depth Elevation

Earthquake Activity

City Distance Mag. Time & Date
Minimum magnitude displayed is 2.5.

Coastal Water Temperatures

Τοποθεσία Θερμοκρασία

Stations

Nearby Weather Stations

Station Location Temp Δείκτης Ψυχρότητας Σημείο Δρόσου Υγρασία Ανεμος Precip. Elev Ενημερώθηκε Type
                   

Watches & Warnings

There are currently no watches in effect.